עמוד ראשי
METAR-TAF:

METAR-TAF

שדות תעופה :

נואדיבו, מאוריטניה

קו רוחב: 20-56N, קו אורך: 017-02W, גובה: 5מטר

תצפית מזג אוויר נוכחית

הדו"ח נערך לפני 53דקות, בשעה 19:00 UTC
רוח 18קשר מכיוון צפון
טמפרטורת 22 צלסיוס
לחות 69%
לחץ 1011 hPa
ראות: 7000מטר
חול נסחף נמוך,

METAR: GQPP 231900Z 35018KT 7000 DRSA NSC 22/16 Q1011 NOSIG

זמן: 19:53 (19:53 UTC)

תחזית

הדו"ח נערך לפני 2 שעות ו 53דקות, בשעה 17:00 UTC
תחזית בתוקף מ 23 ב 18 UTC עד 24 ב 18 UTC
רוח 18קשר מכיוון צפון
ראות: 6000מטר

TAF: GQPP 231700Z 2318/2418 36018KT 6000 NSC

תצפיות ותחזיות מזג אוויר לגבי יותר מ- 4,000 שדות תעופה ברחבי העולם. דוחות METAR ו- TAF.

התחנות הזמינות מסומנות בנקודות צהובות ואדומות על גבי המפה.

העבר את העכבר לנקודה הצבעונית על מנת לראות את שם התחנה.

לאחר מכן, לחץ כדי לראות את תוכן ואת תחזיות מזג האוויר.

כדי לשנות את המפה: לחץ על הכפתורים הירוקים עם הפלוס השחור כדי להתקרב; על הכפתור הירוק עם המקף כדי להתרחק; או בחיצים הירוקים למפות סמוכות.


METAR-TAF: